sensor_id;sensor_type;location;lat;lon;timestamp;P1;durP1;ratioP1;P2;durP2;ratioP2
28447;SDS011;15675;52.870;-1.416;2023-04-24T00:01:13;15.18;;;5.18;;
28447;SDS011;15675;52.870;-1.416;2023-04-24T00:03:40;16.30;;;4.75;;
28447;SDS011;15675;52.870;-1.416;2023-04-24T00:06:06;15.05;;;4.70;;
28447;SDS011;15675;52.870;-1.416;2023-04-24T00:08:33;10.90;;;4.10;;
28447;SDS011;15675;52.870;-1.416;2023-04-24T00:11:00;11.98;;;4.80;;
28447;SDS011;15675;52.870;-1.416;2023-04-24T00:13:25;16.02;;;4.28;;
28447;SDS011;15675;52.870;-1.416;2023-04-24T00:15:51;17.92;;;4.60;;
28447;SDS011;15675;52.870;-1.416;2023-04-24T00:18:17;11.15;;;4.00;;
28447;SDS011;15675;52.870;-1.416;2023-04-24T00:20:42;12.52;;;4.20;;
28447;SDS011;15675;52.870;-1.416;2023-04-24T00:23:09;22.00;;;4.97;;
28447;SDS011;15675;52.870;-1.416;2023-04-24T00:25:34;11.77;;;4.32;;
28447;SDS011;15675;52.870;-1.416;2023-04-24T00:28:00;14.07;;;4.40;;
28447;SDS011;15675;52.870;-1.416;2023-04-24T00:30:25;17.73;;;4.38;;
28447;SDS011;15675;52.870;-1.416;2023-04-24T00:32:51;33.17;;;5.75;;
28447;SDS011;15675;52.870;-1.416;2023-04-24T00:35:17;17.30;;;4.65;;
28447;SDS011;15675;52.870;-1.416;2023-04-24T00:37:45;11.45;;;4.80;;
28447;SDS011;15675;52.870;-1.416;2023-04-24T00:40:10;19.83;;;5.28;;
28447;SDS011;15675;52.870;-1.416;2023-04-24T00:42:36;14.10;;;4.88;;
28447;SDS011;15675;52.870;-1.416;2023-04-24T00:45:02;18.58;;;5.20;;
28447;SDS011;15675;52.870;-1.416;2023-04-24T00:47:28;20.35;;;4.88;;
28447;SDS011;15675;52.870;-1.416;2023-04-24T00:49:55;17.10;;;5.82;;
28447;SDS011;15675;52.870;-1.416;2023-04-24T00:52:20;15.82;;;4.43;;
28447;SDS011;15675;52.870;-1.416;2023-04-24T00:54:49;13.05;;;4.63;;
28447;SDS011;15675;52.870;-1.416;2023-04-24T00:57:15;16.23;;;4.90;;
28447;SDS011;15675;52.870;-1.416;2023-04-24T00:59:41;13.80;;;5.15;;
28447;SDS011;15675;52.870;-1.416;2023-04-24T01:02:08;20.23;;;5.60;;
28447;SDS011;15675;52.870;-1.416;2023-04-24T01:04:36;13.90;;;5.32;;
28447;SDS011;15675;52.870;-1.416;2023-04-24T01:07:02;15.95;;;4.32;;
28447;SDS011;15675;52.870;-1.416;2023-04-24T01:09:29;11.05;;;3.97;;
28447;SDS011;15675;52.870;-1.416;2023-04-24T01:11:55;13.52;;;4.68;;
28447;SDS011;15675;52.870;-1.416;2023-04-24T01:14:21;10.73;;;4.47;;
28447;SDS011;15675;52.870;-1.416;2023-04-24T01:16:47;9.38;;;3.20;;
28447;SDS011;15675;52.870;-1.416;2023-04-24T01:19:13;10.30;;;3.97;;
28447;SDS011;15675;52.870;-1.416;2023-04-24T01:21:40;18.35;;;3.60;;
28447;SDS011;15675;52.870;-1.416;2023-04-24T01:24:08;14.63;;;3.80;;
28447;SDS011;15675;52.870;-1.416;2023-04-24T01:26:34;18.40;;;3.72;;
28447;SDS011;15675;52.870;-1.416;2023-04-24T01:29:00;10.00;;;3.33;;
28447;SDS011;15675;52.870;-1.416;2023-04-24T01:31:25;8.88;;;3.33;;
28447;SDS011;15675;52.870;-1.416;2023-04-24T01:33:51;8.63;;;3.30;;
28447;SDS011;15675;52.870;-1.416;2023-04-24T01:36:17;12.55;;;3.90;;
28447;SDS011;15675;52.870;-1.416;2023-04-24T01:38:43;12.98;;;3.78;;
28447;SDS011;15675;52.870;-1.416;2023-04-24T01:41:09;21.58;;;5.28;;
28447;SDS011;15675;52.870;-1.416;2023-04-24T01:43:35;14.50;;;4.03;;
28447;SDS011;15675;52.870;-1.416;2023-04-24T01:46:01;13.57;;;3.78;;
28447;SDS011;15675;52.870;-1.416;2023-04-24T01:48:26;19.52;;;3.63;;
28447;SDS011;15675;52.870;-1.416;2023-04-24T01:50:52;11.50;;;3.58;;
28447;SDS011;15675;52.870;-1.416;2023-04-24T01:53:17;12.25;;;4.55;;
28447;SDS011;15675;52.870;-1.416;2023-04-24T01:55:43;12.27;;;3.60;;
28447;SDS011;15675;52.870;-1.416;2023-04-24T01:58:09;11.32;;;3.58;;
28447;SDS011;15675;52.870;-1.416;2023-04-24T02:00:34;18.05;;;4.15;;
28447;SDS011;15675;52.870;-1.416;2023-04-24T02:03:00;14.30;;;3.63;;
28447;SDS011;15675;52.870;-1.416;2023-04-24T02:05:27;16.25;;;3.95;;
28447;SDS011;15675;52.870;-1.416;2023-04-24T02:07:53;10.25;;;3.88;;
28447;SDS011;15675;52.870;-1.416;2023-04-24T02:10:19;15.02;;;3.17;;
28447;SDS011;15675;52.870;-1.416;2023-04-24T02:12:44;8.60;;;2.83;;
28447;SDS011;15675;52.870;-1.416;2023-04-24T02:15:10;9.18;;;2.90;;
28447;SDS011;15675;52.870;-1.416;2023-04-24T02:17:36;9.98;;;2.55;;
28447;SDS011;15675;52.870;-1.416;2023-04-24T02:20:01;8.63;;;2.55;;
28447;SDS011;15675;52.870;-1.416;2023-04-24T02:22:27;6.20;;;2.35;;
28447;SDS011;15675;52.870;-1.416;2023-04-24T02:24:52;7.90;;;2.65;;
28447;SDS011;15675;52.870;-1.416;2023-04-24T02:27:18;12.32;;;2.72;;
28447;SDS011;15675;52.870;-1.416;2023-04-24T02:29:44;6.32;;;3.05;;
28447;SDS011;15675;52.870;-1.416;2023-04-24T02:32:09;8.85;;;3.08;;
28447;SDS011;15675;52.870;-1.416;2023-04-24T02:34:40;13.25;;;3.40;;
28447;SDS011;15675;52.870;-1.416;2023-04-24T02:37:06;10.80;;;2.70;;
28447;SDS011;15675;52.870;-1.416;2023-04-24T02:39:31;7.95;;;2.53;;
28447;SDS011;15675;52.870;-1.416;2023-04-24T02:41:57;8.93;;;2.75;;
28447;SDS011;15675;52.870;-1.416;2023-04-24T02:44:23;6.25;;;2.35;;
28447;SDS011;15675;52.870;-1.416;2023-04-24T02:46:48;8.50;;;2.83;;
28447;SDS011;15675;52.870;-1.416;2023-04-24T02:49:14;11.23;;;3.58;;
28447;SDS011;15675;52.870;-1.416;2023-04-24T02:51:39;4.60;;;2.38;;
28447;SDS011;15675;52.870;-1.416;2023-04-24T02:54:09;10.52;;;2.95;;
28447;SDS011;15675;52.870;-1.416;2023-04-24T02:56:37;9.52;;;2.53;;
28447;SDS011;15675;52.870;-1.416;2023-04-24T02:59:03;6.68;;;2.63;;
28447;SDS011;15675;52.870;-1.416;2023-04-24T03:01:29;7.95;;;3.00;;
28447;SDS011;15675;52.870;-1.416;2023-04-24T03:03:54;5.38;;;2.17;;
28447;SDS011;15675;52.870;-1.416;2023-04-24T03:06:20;7.35;;;2.03;;
28447;SDS011;15675;52.870;-1.416;2023-04-24T03:08:46;9.55;;;2.55;;
28447;SDS011;15675;52.870;-1.416;2023-04-24T03:11:11;5.30;;;2.33;;
28447;SDS011;15675;52.870;-1.416;2023-04-24T03:13:36;6.63;;;2.30;;
28447;SDS011;15675;52.870;-1.416;2023-04-24T03:16:02;8.20;;;2.42;;
28447;SDS011;15675;52.870;-1.416;2023-04-24T03:18:27;8.43;;;2.10;;
28447;SDS011;15675;52.870;-1.416;2023-04-24T03:20:53;10.77;;;2.85;;
28447;SDS011;15675;52.870;-1.416;2023-04-24T03:23:18;8.20;;;2.30;;
28447;SDS011;15675;52.870;-1.416;2023-04-24T03:25:44;3.95;;;1.90;;
28447;SDS011;15675;52.870;-1.416;2023-04-24T03:28:10;8.27;;;2.33;;
28447;SDS011;15675;52.870;-1.416;2023-04-24T03:30:35;9.32;;;2.25;;
28447;SDS011;15675;52.870;-1.416;2023-04-24T03:33:01;7.32;;;2.20;;
28447;SDS011;15675;52.870;-1.416;2023-04-24T03:35:26;5.97;;;2.45;;
28447;SDS011;15675;52.870;-1.416;2023-04-24T03:37:52;6.57;;;2.42;;
28447;SDS011;15675;52.870;-1.416;2023-04-24T03:40:18;6.97;;;2.15;;
28447;SDS011;15675;52.870;-1.416;2023-04-24T03:42:43;8.68;;;2.25;;
28447;SDS011;15675;52.870;-1.416;2023-04-24T03:45:09;8.88;;;1.98;;
28447;SDS011;15675;52.870;-1.416;2023-04-24T03:47:35;8.00;;;2.20;;
28447;SDS011;15675;52.870;-1.416;2023-04-24T03:50:00;10.70;;;2.38;;
28447;SDS011;15675;52.870;-1.416;2023-04-24T03:52:26;7.97;;;2.85;;
28447;SDS011;15675;52.870;-1.416;2023-04-24T03:54:52;4.57;;;2.00;;
28447;SDS011;15675;52.870;-1.416;2023-04-24T03:57:17;6.55;;;2.05;;
28447;SDS011;15675;52.870;-1.416;2023-04-24T03:59:44;5.00;;;1.90;;
28447;SDS011;15675;52.870;-1.416;2023-04-24T04:02:10;12.40;;;2.40;;
28447;SDS011;15675;52.870;-1.416;2023-04-24T04:04:35;7.90;;;2.42;;
28447;SDS011;15675;52.870;-1.416;2023-04-24T04:07:01;11.93;;;2.47;;
28447;SDS011;15675;52.870;-1.416;2023-04-24T04:09:28;5.82;;;1.90;;
28447;SDS011;15675;52.870;-1.416;2023-04-24T04:11:54;10.32;;;2.05;;
28447;SDS011;15675;52.870;-1.416;2023-04-24T04:14:21;10.50;;;2.28;;
28447;SDS011;15675;52.870;-1.416;2023-04-24T04:16:47;4.32;;;1.52;;
28447;SDS011;15675;52.870;-1.416;2023-04-24T04:19:12;7.30;;;2.17;;
28447;SDS011;15675;52.870;-1.416;2023-04-24T04:21:38;6.75;;;2.25;;
28447;SDS011;15675;52.870;-1.416;2023-04-24T04:24:03;8.85;;;2.40;;
28447;SDS011;15675;52.870;-1.416;2023-04-24T04:26:30;4.53;;;1.70;;
28447;SDS011;15675;52.870;-1.416;2023-04-24T04:28:58;8.30;;;2.03;;
28447;SDS011;15675;52.870;-1.416;2023-04-24T04:31:25;11.60;;;2.05;;
28447;SDS011;15675;52.870;-1.416;2023-04-24T04:33:51;11.85;;;1.70;;
28447;SDS011;15675;52.870;-1.416;2023-04-24T04:36:16;7.63;;;2.20;;
28447;SDS011;15675;52.870;-1.416;2023-04-24T04:38:43;6.38;;;2.00;;
28447;SDS011;15675;52.870;-1.416;2023-04-24T04:41:10;5.68;;;1.83;;
28447;SDS011;15675;52.870;-1.416;2023-04-24T04:43:35;9.93;;;1.90;;
28447;SDS011;15675;52.870;-1.416;2023-04-24T04:46:01;5.38;;;1.55;;
28447;SDS011;15675;52.870;-1.416;2023-04-24T04:48:28;4.65;;;1.83;;
28447;SDS011;15675;52.870;-1.416;2023-04-24T04:50:56;6.72;;;2.40;;
28447;SDS011;15675;52.870;-1.416;2023-04-24T04:53:23;6.90;;;2.38;;
28447;SDS011;15675;52.870;-1.416;2023-04-24T04:55:49;13.15;;;2.33;;
28447;SDS011;15675;52.870;-1.416;2023-04-24T04:58:15;5.50;;;1.65;;
28447;SDS011;15675;52.870;-1.416;2023-04-24T05:00:40;5.93;;;2.13;;
28447;SDS011;15675;52.870;-1.416;2023-04-24T05:03:06;5.55;;;2.00;;
28447;SDS011;15675;52.870;-1.416;2023-04-24T05:05:32;8.68;;;2.25;;
28447;SDS011;15675;52.870;-1.416;2023-04-24T05:07:57;5.95;;;2.05;;
28447;SDS011;15675;52.870;-1.416;2023-04-24T05:10:23;10.15;;;1.90;;
28447;SDS011;15675;52.870;-1.416;2023-04-24T05:12:48;9.55;;;2.40;;
28447;SDS011;15675;52.870;-1.416;2023-04-24T05:15:14;8.15;;;2.58;;
28447;SDS011;15675;52.870;-1.416;2023-04-24T05:17:40;9.05;;;2.20;;
28447;SDS011;15675;52.870;-1.416;2023-04-24T05:20:06;6.55;;;2.03;;
28447;SDS011;15675;52.870;-1.416;2023-04-24T05:22:32;9.52;;;2.22;;
28447;SDS011;15675;52.870;-1.416;2023-04-24T05:24:57;7.03;;;2.13;;
28447;SDS011;15675;52.870;-1.416;2023-04-24T05:27:23;4.57;;;2.35;;
28447;SDS011;15675;52.870;-1.416;2023-04-24T05:29:49;6.95;;;2.15;;
28447;SDS011;15675;52.870;-1.416;2023-04-24T05:32:15;7.72;;;1.92;;
28447;SDS011;15675;52.870;-1.416;2023-04-24T05:34:40;8.52;;;2.53;;
28447;SDS011;15675;52.870;-1.416;2023-04-24T05:37:06;5.30;;;1.80;;
28447;SDS011;15675;52.870;-1.416;2023-04-24T05:39:34;6.05;;;1.60;;
28447;SDS011;15675;52.870;-1.416;2023-04-24T05:42:00;9.02;;;2.25;;
28447;SDS011;15675;52.870;-1.416;2023-04-24T05:44:26;8.57;;;1.98;;
28447;SDS011;15675;52.870;-1.416;2023-04-24T05:46:52;5.00;;;2.10;;
28447;SDS011;15675;52.870;-1.416;2023-04-24T05:49:18;8.07;;;2.65;;
28447;SDS011;15675;52.870;-1.416;2023-04-24T05:51:43;6.43;;;2.08;;
28447;SDS011;15675;52.870;-1.416;2023-04-24T05:54:09;6.40;;;2.47;;
28447;SDS011;15675;52.870;-1.416;2023-04-24T05:56:37;5.45;;;1.95;;
28447;SDS011;15675;52.870;-1.416;2023-04-24T05:59:03;7.07;;;1.90;;
28447;SDS011;15675;52.870;-1.416;2023-04-24T06:01:28;8.60;;;1.80;;
28447;SDS011;15675;52.870;-1.416;2023-04-24T06:03:54;9.68;;;2.33;;
28447;SDS011;15675;52.870;-1.416;2023-04-24T06:06:20;8.10;;;2.25;;
28447;SDS011;15675;52.870;-1.416;2023-04-24T06:08:45;5.07;;;1.88;;
28447;SDS011;15675;52.870;-1.416;2023-04-24T06:11:11;10.52;;;2.20;;
28447;SDS011;15675;52.870;-1.416;2023-04-24T06:13:37;7.82;;;2.17;;
28447;SDS011;15675;52.870;-1.416;2023-04-24T06:16:02;4.38;;;2.35;;
28447;SDS011;15675;52.870;-1.416;2023-04-24T06:18:28;7.53;;;2.15;;
28447;SDS011;15675;52.870;-1.416;2023-04-24T06:20:53;12.57;;;1.90;;
28447;SDS011;15675;52.870;-1.416;2023-04-24T06:23:20;4.38;;;1.40;;
28447;SDS011;15675;52.870;-1.416;2023-04-24T06:25:45;9.77;;;2.15;;
28447;SDS011;15675;52.870;-1.416;2023-04-24T06:28:11;10.18;;;2.30;;
28447;SDS011;15675;52.870;-1.416;2023-04-24T06:30:37;7.03;;;2.03;;
28447;SDS011;15675;52.870;-1.416;2023-04-24T06:33:03;7.10;;;2.20;;
28447;SDS011;15675;52.870;-1.416;2023-04-24T06:35:28;9.02;;;2.17;;
28447;SDS011;15675;52.870;-1.416;2023-04-24T06:37:54;9.27;;;2.42;;
28447;SDS011;15675;52.870;-1.416;2023-04-24T06:40:21;4.20;;;1.77;;
28447;SDS011;15675;52.870;-1.416;2023-04-24T06:42:47;10.88;;;3.03;;
28447;SDS011;15675;52.870;-1.416;2023-04-24T06:45:12;7.82;;;1.80;;
28447;SDS011;15675;52.870;-1.416;2023-04-24T06:47:38;7.07;;;2.17;;
28447;SDS011;15675;52.870;-1.416;2023-04-24T06:50:04;7.57;;;2.03;;
28447;SDS011;15675;52.870;-1.416;2023-04-24T06:52:30;6.07;;;2.53;;
28447;SDS011;15675;52.870;-1.416;2023-04-24T06:55:04;7.38;;;1.90;;
28447;SDS011;15675;52.870;-1.416;2023-04-24T06:57:30;6.13;;;1.90;;
28447;SDS011;15675;52.870;-1.416;2023-04-24T06:59:56;7.93;;;2.22;;
28447;SDS011;15675;52.870;-1.416;2023-04-24T07:02:22;8.23;;;1.80;;
28447;SDS011;15675;52.870;-1.416;2023-04-24T07:04:47;7.93;;;1.98;;
28447;SDS011;15675;52.870;-1.416;2023-04-24T07:07:13;9.98;;;1.90;;
28447;SDS011;15675;52.870;-1.416;2023-04-24T07:09:42;11.48;;;2.17;;
28447;SDS011;15675;52.870;-1.416;2023-04-24T07:12:08;6.07;;;1.85;;
28447;SDS011;15675;52.870;-1.416;2023-04-24T07:14:35;9.70;;;2.17;;
28447;SDS011;15675;52.870;-1.416;2023-04-24T07:17:04;10.98;;;2.42;;
28447;SDS011;15675;52.870;-1.416;2023-04-24T07:19:31;6.57;;;2.40;;
28447;SDS011;15675;52.870;-1.416;2023-04-24T07:21:58;10.45;;;2.30;;
28447;SDS011;15675;52.870;-1.416;2023-04-24T07:24:24;12.60;;;2.15;;
28447;SDS011;15675;52.870;-1.416;2023-04-24T07:26:51;10.10;;;2.42;;
28447;SDS011;15675;52.870;-1.416;2023-04-24T07:29:17;7.38;;;1.88;;
28447;SDS011;15675;52.870;-1.416;2023-04-24T07:31:43;13.70;;;2.45;;
28447;SDS011;15675;52.870;-1.416;2023-04-24T07:34:09;7.63;;;2.65;;
28447;SDS011;15675;52.870;-1.416;2023-04-24T07:36:34;8.63;;;2.83;;
28447;SDS011;15675;52.870;-1.416;2023-04-24T07:39:00;11.57;;;2.22;;
28447;SDS011;15675;52.870;-1.416;2023-04-24T07:41:26;12.20;;;1.95;;
28447;SDS011;15675;52.870;-1.416;2023-04-24T07:43:53;8.35;;;2.05;;
28447;SDS011;15675;52.870;-1.416;2023-04-24T07:46:19;10.35;;;2.25;;
28447;SDS011;15675;52.870;-1.416;2023-04-24T07:48:45;8.40;;;2.30;;
28447;SDS011;15675;52.870;-1.416;2023-04-24T07:51:14;5.63;;;1.92;;
28447;SDS011;15675;52.870;-1.416;2023-04-24T07:53:40;8.70;;;2.10;;
28447;SDS011;15675;52.870;-1.416;2023-04-24T07:56:06;10.32;;;2.53;;
28447;SDS011;15675;52.870;-1.416;2023-04-24T07:58:31;7.57;;;2.22;;
28447;SDS011;15675;52.870;-1.416;2023-04-24T08:00:57;9.52;;;2.15;;
28447;SDS011;15675;52.870;-1.416;2023-04-24T08:03:22;9.90;;;2.25;;
28447;SDS011;15675;52.870;-1.416;2023-04-24T08:05:49;9.45;;;1.90;;
28447;SDS011;15675;52.870;-1.416;2023-04-24T08:08:16;9.27;;;2.15;;
28447;SDS011;15675;52.870;-1.416;2023-04-24T08:10:41;7.22;;;2.08;;
28447;SDS011;15675;52.870;-1.416;2023-04-24T08:13:07;13.20;;;2.10;;
28447;SDS011;15675;52.870;-1.416;2023-04-24T08:15:33;14.13;;;2.05;;
28447;SDS011;15675;52.870;-1.416;2023-04-24T08:17:58;4.07;;;1.50;;
28447;SDS011;15675;52.870;-1.416;2023-04-24T08:20:24;8.50;;;1.90;;
28447;SDS011;15675;52.870;-1.416;2023-04-24T08:22:49;4.05;;;1.95;;
28447;SDS011;15675;52.870;-1.416;2023-04-24T08:25:15;7.40;;;2.08;;
28447;SDS011;15675;52.870;-1.416;2023-04-24T08:27:41;12.48;;;2.30;;
28447;SDS011;15675;52.870;-1.416;2023-04-24T08:30:07;8.82;;;2.92;;
28447;SDS011;15675;52.870;-1.416;2023-04-24T08:32:33;9.73;;;1.90;;
28447;SDS011;15675;52.870;-1.416;2023-04-24T08:34:58;9.70;;;2.05;;
28447;SDS011;15675;52.870;-1.416;2023-04-24T08:37:25;7.82;;;2.13;;
28447;SDS011;15675;52.870;-1.416;2023-04-24T08:39:52;8.55;;;2.15;;
28447;SDS011;15675;52.870;-1.416;2023-04-24T08:42:18;10.02;;;2.28;;
28447;SDS011;15675;52.870;-1.416;2023-04-24T08:44:45;10.23;;;2.38;;
28447;SDS011;15675;52.870;-1.416;2023-04-24T08:47:11;11.50;;;2.10;;
28447;SDS011;15675;52.870;-1.416;2023-04-24T08:49:37;8.35;;;2.38;;
28447;SDS011;15675;52.870;-1.416;2023-04-24T08:52:04;6.97;;;2.47;;
28447;SDS011;15675;52.870;-1.416;2023-04-24T08:54:30;8.48;;;2.45;;
28447;SDS011;15675;52.870;-1.416;2023-04-24T08:57:00;10.40;;;2.95;;
28447;SDS011;15675;52.870;-1.416;2023-04-24T08:59:29;10.07;;;2.75;;
28447;SDS011;15675;52.870;-1.416;2023-04-24T09:01:59;8.52;;;2.65;;
28447;SDS011;15675;52.870;-1.416;2023-04-24T09:04:25;10.73;;;3.83;;
28447;SDS011;15675;52.870;-1.416;2023-04-24T09:06:52;10.07;;;2.70;;
28447;SDS011;15675;52.870;-1.416;2023-04-24T09:09:20;11.00;;;3.25;;
28447;SDS011;15675;52.870;-1.416;2023-04-24T09:11:48;9.65;;;2.88;;
28447;SDS011;15675;52.870;-1.416;2023-04-24T09:14:15;7.97;;;2.40;;
28447;SDS011;15675;52.870;-1.416;2023-04-24T09:16:42;14.43;;;3.63;;
28447;SDS011;15675;52.870;-1.416;2023-04-24T09:19:07;12.25;;;2.45;;
28447;SDS011;15675;52.870;-1.416;2023-04-24T09:21:33;11.10;;;2.88;;
28447;SDS011;15675;52.870;-1.416;2023-04-24T09:24:00;6.80;;;2.72;;
28447;SDS011;15675;52.870;-1.416;2023-04-24T09:26:32;7.72;;;3.25;;
28447;SDS011;15675;52.870;-1.416;2023-04-24T09:29:00;9.68;;;2.85;;
28447;SDS011;15675;52.870;-1.416;2023-04-24T09:31:27;17.50;;;2.58;;
28447;SDS011;15675;52.870;-1.416;2023-04-24T09:33:54;17.75;;;3.05;;
28447;SDS011;15675;52.870;-1.416;2023-04-24T09:36:40;17.35;;;3.00;;
28447;SDS011;15675;52.870;-1.416;2023-04-24T09:39:08;11.02;;;2.45;;
28447;SDS011;15675;52.870;-1.416;2023-04-24T09:41:54;11.00;;;3.80;;
28447;SDS011;15675;52.870;-1.416;2023-04-24T09:44:24;14.75;;;3.00;;
28447;SDS011;15675;52.870;-1.416;2023-04-24T09:46:53;9.55;;;2.85;;
28447;SDS011;15675;52.870;-1.416;2023-04-24T09:49:24;11.43;;;3.25;;
28447;SDS011;15675;52.870;-1.416;2023-04-24T09:51:50;15.13;;;3.20;;
28447;SDS011;15675;52.870;-1.416;2023-04-24T09:54:16;11.80;;;2.75;;
28447;SDS011;15675;52.870;-1.416;2023-04-24T09:56:45;20.20;;;3.30;;
28447;SDS011;15675;52.870;-1.416;2023-04-24T09:59:16;11.40;;;3.35;;
28447;SDS011;15675;52.870;-1.416;2023-04-24T10:01:43;12.30;;;3.53;;
28447;SDS011;15675;52.870;-1.416;2023-04-24T10:04:17;7.78;;;2.85;;
28447;SDS011;15675;52.870;-1.416;2023-04-24T10:06:48;14.30;;;3.47;;
28447;SDS011;15675;52.870;-1.416;2023-04-24T10:09:15;12.35;;;2.75;;
28447;SDS011;15675;52.870;-1.416;2023-04-24T10:11:46;11.38;;;3.38;;
28447;SDS011;15675;52.870;-1.416;2023-04-24T10:14:13;13.52;;;3.45;;
28447;SDS011;15675;52.870;-1.416;2023-04-24T10:16:40;12.38;;;3.33;;
28447;SDS011;15675;52.870;-1.416;2023-04-24T10:19:06;12.45;;;2.78;;
28447;SDS011;15675;52.870;-1.416;2023-04-24T10:21:32;8.93;;;2.88;;
28447;SDS011;15675;52.870;-1.416;2023-04-24T10:23:59;14.20;;;4.45;;
28447;SDS011;15675;52.870;-1.416;2023-04-24T10:26:28;11.77;;;2.72;;
28447;SDS011;15675;52.870;-1.416;2023-04-24T10:28:54;13.43;;;3.05;;
28447;SDS011;15675;52.870;-1.416;2023-04-24T10:31:23;8.80;;;2.80;;
28447;SDS011;15675;52.870;-1.416;2023-04-24T10:33:49;11.38;;;2.65;;
28447;SDS011;15675;52.870;-1.416;2023-04-24T10:36:16;7.57;;;2.35;;
28447;SDS011;15675;52.870;-1.416;2023-04-24T10:38:43;12.40;;;3.38;;
28447;SDS011;15675;52.870;-1.416;2023-04-24T10:41:12;9.00;;;2.78;;
28447;SDS011;15675;52.870;-1.416;2023-04-24T10:43:44;11.18;;;3.13;;
28447;SDS011;15675;52.870;-1.416;2023-04-24T10:46:11;12.68;;;3.17;;
28447;SDS011;15675;52.870;-1.416;2023-04-24T10:48:44;12.55;;;3.97;;
28447;SDS011;15675;52.870;-1.416;2023-04-24T10:51:18;7.78;;;2.72;;
28447;SDS011;15675;52.870;-1.416;2023-04-24T10:53:47;10.32;;;3.08;;
28447;SDS011;15675;52.870;-1.416;2023-04-24T10:56:15;12.98;;;2.53;;
28447;SDS011;15675;52.870;-1.416;2023-04-24T10:58:42;9.30;;;2.78;;
28447;SDS011;15675;52.870;-1.416;2023-04-24T11:01:29;11.43;;;3.20;;
28447;SDS011;15675;52.870;-1.416;2023-04-24T11:03:56;12.77;;;2.80;;
28447;SDS011;15675;52.870;-1.416;2023-04-24T11:06:33;10.90;;;2.15;;
28447;SDS011;15675;52.870;-1.416;2023-04-24T11:09:06;8.25;;;2.33;;
28447;SDS011;15675;52.870;-1.416;2023-04-24T11:11:33;12.70;;;2.80;;
28447;SDS011;15675;52.870;-1.416;2023-04-24T11:19:00;10.93;;;2.63;;
28447;SDS011;15675;52.870;-1.416;2023-04-24T11:21:46;8.13;;;2.90;;
28447;SDS011;15675;52.870;-1.416;2023-04-24T11:24:22;11.20;;;3.13;;
28447;SDS011;15675;52.870;-1.416;2023-04-24T11:26:50;10.00;;;2.50;;
28447;SDS011;15675;52.870;-1.416;2023-04-24T11:29:17;7.63;;;2.45;;
28447;SDS011;15675;52.870;-1.416;2023-04-24T11:31:46;14.63;;;2.88;;
28447;SDS011;15675;52.870;-1.416;2023-04-24T11:34:16;8.18;;;2.53;;
28447;SDS011;15675;52.870;-1.416;2023-04-24T11:36:43;10.93;;;2.65;;
28447;SDS011;15675;52.870;-1.416;2023-04-24T11:39:10;7.70;;;2.30;;
28447;SDS011;15675;52.870;-1.416;2023-04-24T11:41:36;6.45;;;3.00;;
28447;SDS011;15675;52.870;-1.416;2023-04-24T11:44:02;11.55;;;2.60;;
28447;SDS011;15675;52.870;-1.416;2023-04-24T11:46:30;10.00;;;2.65;;
28447;SDS011;15675;52.870;-1.416;2023-04-24T11:48:57;7.18;;;2.58;;
28447;SDS011;15675;52.870;-1.416;2023-04-24T11:51:23;10.60;;;2.63;;
28447;SDS011;15675;52.870;-1.416;2023-04-24T11:53:54;7.85;;;2.05;;
28447;SDS011;15675;52.870;-1.416;2023-04-24T11:56:21;9.85;;;2.85;;
28447;SDS011;15675;52.870;-1.416;2023-04-24T11:58:48;6.93;;;2.80;;
28447;SDS011;15675;52.870;-1.416;2023-04-24T12:01:13;7.72;;;3.08;;
28447;SDS011;15675;52.870;-1.416;2023-04-24T12:03:39;8.20;;;2.70;;
28447;SDS011;15675;52.870;-1.416;2023-04-24T12:06:08;6.60;;;2.30;;
28447;SDS011;15675;52.870;-1.416;2023-04-24T12:08:35;7.65;;;2.55;;
28447;SDS011;15675;52.870;-1.416;2023-04-24T12:11:02;10.98;;;2.75;;
28447;SDS011;15675;52.870;-1.416;2023-04-24T12:13:29;10.35;;;3.00;;
28447;SDS011;15675;52.870;-1.416;2023-04-24T12:15:59;12.75;;;3.70;;
28447;SDS011;15675;52.870;-1.416;2023-04-24T12:18:25;10.70;;;2.97;;
28447;SDS011;15675;52.870;-1.416;2023-04-24T12:20:51;11.23;;;3.08;;
28447;SDS011;15675;52.870;-1.416;2023-04-24T12:23:32;10.65;;;2.80;;
28447;SDS011;15675;52.870;-1.416;2023-04-24T12:26:00;12.25;;;3.15;;
28447;SDS011;15675;52.870;-1.416;2023-04-24T12:28:34;12.88;;;2.63;;
28447;SDS011;15675;52.870;-1.416;2023-04-24T12:31:00;9.70;;;3.13;;
28447;SDS011;15675;52.870;-1.416;2023-04-24T12:33:25;15.75;;;2.97;;
28447;SDS011;15675;52.870;-1.416;2023-04-24T12:35:52;8.55;;;2.80;;
28447;SDS011;15675;52.870;-1.416;2023-04-24T12:38:21;11.27;;;2.38;;
28447;SDS011;15675;52.870;-1.416;2023-04-24T12:41:00;15.52;;;2.97;;
28447;SDS011;15675;52.870;-1.416;2023-04-24T12:43:30;12.88;;;3.35;;
28447;SDS011;15675;52.870;-1.416;2023-04-24T12:45:56;13.45;;;3.17;;
28447;SDS011;15675;52.870;-1.416;2023-04-24T12:48:22;13.00;;;2.83;;
28447;SDS011;15675;52.870;-1.416;2023-04-24T12:50:48;10.02;;;2.72;;
28447;SDS011;15675;52.870;-1.416;2023-04-24T12:53:13;18.33;;;3.30;;
28447;SDS011;15675;52.870;-1.416;2023-04-24T12:55:40;11.77;;;2.55;;
28447;SDS011;15675;52.870;-1.416;2023-04-24T12:58:05;12.68;;;2.97;;
28447;SDS011;15675;52.870;-1.416;2023-04-24T13:00:31;15.80;;;3.22;;
28447;SDS011;15675;52.870;-1.416;2023-04-24T13:02:57;8.88;;;2.80;;
28447;SDS011;15675;52.870;-1.416;2023-04-24T13:05:22;13.15;;;3.80;;
28447;SDS011;15675;52.870;-1.416;2023-04-24T13:07:48;9.23;;;2.95;;
28447;SDS011;15675;52.870;-1.416;2023-04-24T13:10:14;11.85;;;2.80;;
28447;SDS011;15675;52.870;-1.416;2023-04-24T13:12:39;9.85;;;3.05;;
28447;SDS011;15675;52.870;-1.416;2023-04-24T13:15:06;19.40;;;2.65;;
28447;SDS011;15675;52.870;-1.416;2023-04-24T13:17:32;7.30;;;2.63;;
28447;SDS011;15675;52.870;-1.416;2023-04-24T13:19:58;9.48;;;3.35;;
28447;SDS011;15675;52.870;-1.416;2023-04-24T13:22:24;9.65;;;3.13;;
28447;SDS011;15675;52.870;-1.416;2023-04-24T13:24:50;10.15;;;2.90;;
28447;SDS011;15675;52.870;-1.416;2023-04-24T13:27:15;14.25;;;3.20;;
28447;SDS011;15675;52.870;-1.416;2023-04-24T13:29:41;9.00;;;2.70;;
28447;SDS011;15675;52.870;-1.416;2023-04-24T13:32:07;9.75;;;3.17;;
28447;SDS011;15675;52.870;-1.416;2023-04-24T13:34:33;6.88;;;2.03;;
28447;SDS011;15675;52.870;-1.416;2023-04-24T13:37:00;12.00;;;3.40;;
28447;SDS011;15675;52.870;-1.416;2023-04-24T13:39:26;12.20;;;2.95;;
28447;SDS011;15675;52.870;-1.416;2023-04-24T13:41:52;9.80;;;3.00;;
28447;SDS011;15675;52.870;-1.416;2023-04-24T13:44:18;13.23;;;2.88;;
28447;SDS011;15675;52.870;-1.416;2023-04-24T13:46:46;11.10;;;3.10;;
28447;SDS011;15675;52.870;-1.416;2023-04-24T13:49:13;14.50;;;3.60;;
28447;SDS011;15675;52.870;-1.416;2023-04-24T13:51:40;7.82;;;3.00;;
28447;SDS011;15675;52.870;-1.416;2023-04-24T13:54:06;9.52;;;3.20;;
28447;SDS011;15675;52.870;-1.416;2023-04-24T13:56:31;14.95;;;3.42;;
28447;SDS011;15675;52.870;-1.416;2023-04-24T13:58:57;14.57;;;3.20;;
28447;SDS011;15675;52.870;-1.416;2023-04-24T14:01:22;12.40;;;2.90;;
28447;SDS011;15675;52.870;-1.416;2023-04-24T14:03:55;11.73;;;3.75;;
28447;SDS011;15675;52.870;-1.416;2023-04-24T14:06:20;8.50;;;3.03;;
28447;SDS011;15675;52.870;-1.416;2023-04-24T14:08:47;13.75;;;3.80;;
28447;SDS011;15675;52.870;-1.416;2023-04-24T14:11:13;12.13;;;3.38;;
28447;SDS011;15675;52.870;-1.416;2023-04-24T14:13:40;5.95;;;3.40;;
28447;SDS011;15675;52.870;-1.416;2023-04-24T14:16:06;13.98;;;3.42;;
28447;SDS011;15675;52.870;-1.416;2023-04-24T14:18:32;10.07;;;2.90;;
28447;SDS011;15675;52.870;-1.416;2023-04-24T14:20:57;11.48;;;3.38;;
28447;SDS011;15675;52.870;-1.416;2023-04-24T14:23:23;11.88;;;3.15;;
28447;SDS011;15675;52.870;-1.416;2023-04-24T14:25:49;8.30;;;2.65;;
28447;SDS011;15675;52.870;-1.416;2023-04-24T14:28:17;10.45;;;2.78;;
28447;SDS011;15675;52.870;-1.416;2023-04-24T14:30:43;8.90;;;3.20;;